sensor_id;sensor_type;location;lat;lon;timestamp;P1;durP1;ratioP1;P2;durP2;ratioP2
30337;SDS011;17143;51.888;5.408;2023-04-06T00:10:01;11.90;;;7.33;;
30337;SDS011;17143;51.888;5.408;2023-04-06T00:25:05;16.50;;;8.27;;
30337;SDS011;17143;51.888;5.408;2023-04-06T00:40:09;19.63;;;7.50;;
30337;SDS011;17143;51.888;5.408;2023-04-06T00:55:11;10.97;;;6.83;;
30337;SDS011;17143;51.888;5.408;2023-04-06T01:10:23;11.57;;;6.93;;
30337;SDS011;17143;51.888;5.408;2023-04-06T01:25:27;11.70;;;6.93;;
30337;SDS011;17143;51.888;5.408;2023-04-06T01:40:43;12.37;;;6.53;;
30337;SDS011;17143;51.888;5.408;2023-04-06T01:55:46;13.17;;;6.97;;
30337;SDS011;17143;51.888;5.408;2023-04-06T02:11:01;13.63;;;5.90;;
30337;SDS011;17143;51.888;5.408;2023-04-06T02:26:13;11.93;;;7.40;;
30337;SDS011;17143;51.888;5.408;2023-04-06T02:41:15;12.37;;;6.37;;
30337;SDS011;17143;51.888;5.408;2023-04-06T02:56:17;12.57;;;6.80;;
30337;SDS011;17143;51.888;5.408;2023-04-06T03:11:24;12.40;;;7.40;;
30337;SDS011;17143;51.888;5.408;2023-04-06T03:26:27;14.40;;;8.33;;
30337;SDS011;17143;51.888;5.408;2023-04-06T03:41:30;13.20;;;7.77;;
30337;SDS011;17143;51.888;5.408;2023-04-06T03:56:38;14.30;;;8.27;;
30337;SDS011;17143;51.888;5.408;2023-04-06T04:11:40;16.77;;;9.07;;
30337;SDS011;17143;51.888;5.408;2023-04-06T04:26:42;19.63;;;10.43;;
30337;SDS011;17143;51.888;5.408;2023-04-06T04:41:44;18.47;;;10.27;;
30337;SDS011;17143;51.888;5.408;2023-04-06T04:56:48;20.03;;;10.27;;
30337;SDS011;17143;51.888;5.408;2023-04-06T05:12:04;19.23;;;10.53;;
30337;SDS011;17143;51.888;5.408;2023-04-06T05:27:12;28.23;;;12.10;;
30337;SDS011;17143;51.888;5.408;2023-04-06T05:42:15;24.57;;;12.00;;
30337;SDS011;17143;51.888;5.408;2023-04-06T05:57:27;22.30;;;11.67;;
30337;SDS011;17143;51.888;5.408;2023-04-06T06:12:30;26.67;;;12.20;;
30337;SDS011;17143;51.888;5.408;2023-04-06T06:27:32;20.50;;;11.00;;
30337;SDS011;17143;51.888;5.408;2023-04-06T06:42:34;29.00;;;12.93;;
30337;SDS011;17143;51.888;5.408;2023-04-06T06:57:55;23.27;;;13.50;;
30337;SDS011;17143;51.888;5.408;2023-04-06T07:12:58;24.93;;;13.67;;
30337;SDS011;17143;51.888;5.408;2023-04-06T07:28:00;23.83;;;12.70;;
30337;SDS011;17143;51.888;5.408;2023-04-06T07:43:03;27.20;;;13.60;;
30337;SDS011;17143;51.888;5.408;2023-04-06T07:58:06;27.90;;;13.63;;
30337;SDS011;17143;51.888;5.408;2023-04-06T08:13:08;25.30;;;12.47;;
30337;SDS011;17143;51.888;5.408;2023-04-06T08:28:10;23.43;;;13.27;;
30337;SDS011;17143;51.888;5.408;2023-04-06T08:43:13;24.53;;;13.50;;
30337;SDS011;17143;51.888;5.408;2023-04-06T08:58:16;21.27;;;12.83;;
30337;SDS011;17143;51.888;5.408;2023-04-06T09:13:18;28.80;;;13.87;;
30337;SDS011;17143;51.888;5.408;2023-04-06T09:28:20;27.10;;;13.00;;
30337;SDS011;17143;51.888;5.408;2023-04-06T09:43:25;23.27;;;12.27;;
30337;SDS011;17143;51.888;5.408;2023-04-06T09:58:27;21.30;;;11.63;;
30337;SDS011;17143;51.888;5.408;2023-04-06T10:13:37;12.27;;;7.67;;
30337;SDS011;17143;51.888;5.408;2023-04-06T10:28:40;12.93;;;7.07;;
30337;SDS011;17143;51.888;5.408;2023-04-06T10:43:43;9.77;;;5.53;;
30337;SDS011;17143;51.888;5.408;2023-04-06T10:58:46;13.07;;;5.37;;
30337;SDS011;17143;51.888;5.408;2023-04-06T11:13:48;10.43;;;5.80;;
30337;SDS011;17143;51.888;5.408;2023-04-06T11:28:52;8.50;;;5.17;;
30337;SDS011;17143;51.888;5.408;2023-04-06T11:43:54;12.63;;;6.43;;
30337;SDS011;17143;51.888;5.408;2023-04-06T11:58:57;14.77;;;7.43;;
30337;SDS011;17143;51.888;5.408;2023-04-06T12:14:00;11.17;;;6.93;;
30337;SDS011;17143;51.888;5.408;2023-04-06T12:29:02;9.70;;;6.37;;
30337;SDS011;17143;51.888;5.408;2023-04-06T12:44:04;10.57;;;5.90;;
30337;SDS011;17143;51.888;5.408;2023-04-06T12:59:06;10.30;;;6.70;;
30337;SDS011;17143;51.888;5.408;2023-04-06T13:14:08;13.47;;;7.87;;
30337;SDS011;17143;51.888;5.408;2023-04-06T13:29:11;9.00;;;5.97;;
30337;SDS011;17143;51.888;5.408;2023-04-06T13:44:13;10.53;;;7.10;;
30337;SDS011;17143;51.888;5.408;2023-04-06T13:59:15;12.23;;;5.50;;
30337;SDS011;17143;51.888;5.408;2023-04-06T14:14:17;8.27;;;5.03;;
30337;SDS011;17143;51.888;5.408;2023-04-06T14:29:19;7.90;;;5.13;;
30337;SDS011;17143;51.888;5.408;2023-04-06T14:44:21;7.57;;;5.03;;
30337;SDS011;17143;51.888;5.408;2023-04-06T14:59:23;7.57;;;5.37;;
30337;SDS011;17143;51.888;5.408;2023-04-06T15:14:25;7.57;;;4.40;;
30337;SDS011;17143;51.888;5.408;2023-04-06T15:29:27;7.23;;;4.47;;
30337;SDS011;17143;51.888;5.408;2023-04-06T15:44:31;6.60;;;5.00;;
30337;SDS011;17143;51.888;5.408;2023-04-06T15:59:33;5.60;;;4.23;;
30337;SDS011;17143;51.888;5.408;2023-04-06T16:14:35;6.27;;;4.27;;
30337;SDS011;17143;51.888;5.408;2023-04-06T16:29:37;5.37;;;4.10;;
30337;SDS011;17143;51.888;5.408;2023-04-06T16:44:39;5.33;;;3.80;;
30337;SDS011;17143;51.888;5.408;2023-04-06T16:59:41;4.13;;;3.27;;
30337;SDS011;17143;51.888;5.408;2023-04-06T17:14:43;5.00;;;3.63;;
30337;SDS011;17143;51.888;5.408;2023-04-06T17:29:45;3.77;;;3.20;;
30337;SDS011;17143;51.888;5.408;2023-04-06T17:44:47;4.03;;;3.33;;
30337;SDS011;17143;51.888;5.408;2023-04-06T17:59:50;4.33;;;3.63;;
30337;SDS011;17143;51.888;5.408;2023-04-06T18:14:52;5.10;;;4.30;;
30337;SDS011;17143;51.888;5.408;2023-04-06T18:29:54;4.53;;;3.93;;
30337;SDS011;17143;51.888;5.408;2023-04-06T18:44:56;4.10;;;3.70;;
30337;SDS011;17143;51.888;5.408;2023-04-06T18:59:58;4.70;;;4.23;;
30337;SDS011;17143;51.888;5.408;2023-04-06T19:15:00;5.97;;;4.73;;
30337;SDS011;17143;51.888;5.408;2023-04-06T19:30:05;6.87;;;6.17;;
30337;SDS011;17143;51.888;5.408;2023-04-06T19:45:08;8.13;;;6.97;;
30337;SDS011;17143;51.888;5.408;2023-04-06T20:00:11;8.17;;;6.70;;
30337;SDS011;17143;51.888;5.408;2023-04-06T20:15:14;9.80;;;7.97;;
30337;SDS011;17143;51.888;5.408;2023-04-06T20:30:16;11.53;;;9.37;;
30337;SDS011;17143;51.888;5.408;2023-04-06T20:45:18;12.20;;;9.90;;
30337;SDS011;17143;51.888;5.408;2023-04-06T21:00:21;14.37;;;10.83;;
30337;SDS011;17143;51.888;5.408;2023-04-06T21:15:23;19.20;;;12.63;;
30337;SDS011;17143;51.888;5.408;2023-04-06T21:30:25;18.27;;;13.27;;
30337;SDS011;17143;51.888;5.408;2023-04-06T21:45:27;18.40;;;11.40;;
30337;SDS011;17143;51.888;5.408;2023-04-06T22:00:29;14.50;;;7.53;;
30337;SDS011;17143;51.888;5.408;2023-04-06T22:15:31;12.43;;;7.50;;
30337;SDS011;17143;51.888;5.408;2023-04-06T22:30:33;10.73;;;6.10;;
30337;SDS011;17143;51.888;5.408;2023-04-06T22:45:35;8.40;;;5.07;;
30337;SDS011;17143;51.888;5.408;2023-04-06T23:00:37;6.73;;;4.23;;
30337;SDS011;17143;51.888;5.408;2023-04-06T23:15:39;8.23;;;4.00;;
30337;SDS011;17143;51.888;5.408;2023-04-06T23:30:41;8.57;;;3.53;;
30337;SDS011;17143;51.888;5.408;2023-04-06T23:45:43;5.33;;;2.90;;
